sensor_id;sensor_type;location;lat;lon;timestamp;P1;durP1;ratioP1;P2;durP2;ratioP2
74459;SDS011;62902;48.854;9.292;2023-05-19T00:01:46;1.00;;;1.00;;
74459;SDS011;62902;48.854;9.292;2023-05-19T00:04:13;1.00;;;1.00;;
74459;SDS011;62902;48.854;9.292;2023-05-19T00:06:40;0.80;;;0.80;;
74459;SDS011;62902;48.854;9.292;2023-05-19T00:09:08;0.90;;;0.90;;
74459;SDS011;62902;48.854;9.292;2023-05-19T00:11:36;1.00;;;1.00;;
74459;SDS011;62902;48.854;9.292;2023-05-19T00:14:05;0.90;;;0.90;;
74459;SDS011;62902;48.854;9.292;2023-05-19T00:16:33;0.82;;;0.82;;
74459;SDS011;62902;48.854;9.292;2023-05-19T00:19:01;0.90;;;0.90;;
74459;SDS011;62902;48.854;9.292;2023-05-19T00:21:29;1.00;;;1.00;;
74459;SDS011;62902;48.854;9.292;2023-05-19T00:23:57;0.82;;;0.82;;
74459;SDS011;62902;48.854;9.292;2023-05-19T00:26:25;1.02;;;1.02;;
74459;SDS011;62902;48.854;9.292;2023-05-19T00:28:58;0.90;;;0.90;;
74459;SDS011;62902;48.854;9.292;2023-05-19T00:31:25;1.00;;;1.00;;
74459;SDS011;62902;48.854;9.292;2023-05-19T00:33:51;0.90;;;0.90;;
74459;SDS011;62902;48.854;9.292;2023-05-19T00:36:18;1.00;;;1.00;;
74459;SDS011;62902;48.854;9.292;2023-05-19T00:38:45;0.90;;;0.90;;
74459;SDS011;62902;48.854;9.292;2023-05-19T00:41:11;0.90;;;0.90;;
74459;SDS011;62902;48.854;9.292;2023-05-19T00:43:38;0.80;;;0.80;;
74459;SDS011;62902;48.854;9.292;2023-05-19T00:46:05;1.00;;;1.00;;
74459;SDS011;62902;48.854;9.292;2023-05-19T00:48:32;1.00;;;1.00;;
74459;SDS011;62902;48.854;9.292;2023-05-19T00:50:59;1.00;;;1.00;;
74459;SDS011;62902;48.854;9.292;2023-05-19T00:53:33;0.90;;;0.90;;
74459;SDS011;62902;48.854;9.292;2023-05-19T00:56:00;0.90;;;0.90;;
74459;SDS011;62902;48.854;9.292;2023-05-19T00:58:28;0.90;;;0.90;;
74459;SDS011;62902;48.854;9.292;2023-05-19T01:00:57;0.80;;;0.80;;
74459;SDS011;62902;48.854;9.292;2023-05-19T01:03:33;0.80;;;0.80;;
74459;SDS011;62902;48.854;9.292;2023-05-19T01:06:01;1.02;;;1.02;;
74459;SDS011;62902;48.854;9.292;2023-05-19T01:08:31;0.85;;;0.85;;
74459;SDS011;62902;48.854;9.292;2023-05-19T01:10:59;0.90;;;0.90;;
74459;SDS011;62902;48.854;9.292;2023-05-19T01:13:26;0.90;;;0.90;;
74459;SDS011;62902;48.854;9.292;2023-05-19T01:18:28;1.00;;;1.00;;
74459;SDS011;62902;48.854;9.292;2023-05-19T01:21:06;0.90;;;0.90;;
74459;SDS011;62902;48.854;9.292;2023-05-19T01:26:52;0.90;;;0.90;;
74459;SDS011;62902;48.854;9.292;2023-05-19T01:32:28;0.93;;;0.93;;
74459;SDS011;62902;48.854;9.292;2023-05-19T01:34:55;0.90;;;0.90;;
74459;SDS011;62902;48.854;9.292;2023-05-19T01:37:23;0.90;;;0.90;;
74459;SDS011;62902;48.854;9.292;2023-05-19T01:39:51;0.90;;;0.90;;
74459;SDS011;62902;48.854;9.292;2023-05-19T01:42:17;1.00;;;1.00;;
74459;SDS011;62902;48.854;9.292;2023-05-19T01:44:45;0.88;;;0.88;;
74459;SDS011;62902;48.854;9.292;2023-05-19T01:47:12;0.90;;;0.90;;
74459;SDS011;62902;48.854;9.292;2023-05-19T01:49:40;0.80;;;0.80;;
74459;SDS011;62902;48.854;9.292;2023-05-19T01:52:07;1.00;;;1.00;;
74459;SDS011;62902;48.854;9.292;2023-05-19T01:54:34;0.90;;;0.90;;
74459;SDS011;62902;48.854;9.292;2023-05-19T01:59:36;0.90;;;0.90;;
74459;SDS011;62902;48.854;9.292;2023-05-19T02:02:14;1.02;;;1.02;;
74459;SDS011;62902;48.854;9.292;2023-05-19T02:07:25;1.00;;;1.00;;
74459;SDS011;62902;48.854;9.292;2023-05-19T02:10:04;0.93;;;0.93;;
74459;SDS011;62902;48.854;9.292;2023-05-19T02:12:36;0.90;;;0.90;;
74459;SDS011;62902;48.854;9.292;2023-05-19T02:17:36;0.80;;;0.80;;
74459;SDS011;62902;48.854;9.292;2023-05-19T02:20:08;0.80;;;0.80;;
74459;SDS011;62902;48.854;9.292;2023-05-19T02:22:35;0.90;;;0.90;;
74459;SDS011;62902;48.854;9.292;2023-05-19T02:25:02;0.82;;;0.82;;
74459;SDS011;62902;48.854;9.292;2023-05-19T02:27:31;0.90;;;0.90;;
74459;SDS011;62902;48.854;9.292;2023-05-19T02:30:01;0.90;;;0.90;;
74459;SDS011;62902;48.854;9.292;2023-05-19T02:32:29;1.00;;;1.00;;
74459;SDS011;62902;48.854;9.292;2023-05-19T02:34:56;0.80;;;0.80;;
74459;SDS011;62902;48.854;9.292;2023-05-19T02:37:23;0.88;;;0.88;;
74459;SDS011;62902;48.854;9.292;2023-05-19T02:39:50;0.95;;;0.95;;
74459;SDS011;62902;48.854;9.292;2023-05-19T02:42:17;1.20;;;1.13;;
74459;SDS011;62902;48.854;9.292;2023-05-19T02:44:43;0.82;;;0.82;;
74459;SDS011;62902;48.854;9.292;2023-05-19T02:47:11;0.90;;;0.90;;
74459;SDS011;62902;48.854;9.292;2023-05-19T02:49:38;0.93;;;0.93;;
74459;SDS011;62902;48.854;9.292;2023-05-19T02:52:05;0.90;;;0.90;;
74459;SDS011;62902;48.854;9.292;2023-05-19T02:54:32;1.00;;;1.00;;
74459;SDS011;62902;48.854;9.292;2023-05-19T02:56:59;0.90;;;0.90;;
74459;SDS011;62902;48.854;9.292;2023-05-19T02:59:26;1.10;;;1.10;;
74459;SDS011;62902;48.854;9.292;2023-05-19T03:01:57;0.90;;;0.90;;
74459;SDS011;62902;48.854;9.292;2023-05-19T03:04:25;0.90;;;0.90;;
74459;SDS011;62902;48.854;9.292;2023-05-19T03:06:52;0.93;;;0.93;;
74459;SDS011;62902;48.854;9.292;2023-05-19T03:09:22;0.90;;;0.90;;
74459;SDS011;62902;48.854;9.292;2023-05-19T03:11:49;0.95;;;0.95;;
74459;SDS011;62902;48.854;9.292;2023-05-19T03:14:15;0.90;;;0.90;;
74459;SDS011;62902;48.854;9.292;2023-05-19T03:16:43;0.90;;;0.90;;
74459;SDS011;62902;48.854;9.292;2023-05-19T03:19:10;0.90;;;0.90;;
74459;SDS011;62902;48.854;9.292;2023-05-19T03:21:37;1.00;;;1.00;;
74459;SDS011;62902;48.854;9.292;2023-05-19T03:24:04;1.00;;;1.00;;
74459;SDS011;62902;48.854;9.292;2023-05-19T03:26:32;0.90;;;0.90;;
74459;SDS011;62902;48.854;9.292;2023-05-19T03:28:58;0.90;;;0.90;;
74459;SDS011;62902;48.854;9.292;2023-05-19T03:31:25;0.90;;;0.90;;
74459;SDS011;62902;48.854;9.292;2023-05-19T03:33:52;0.90;;;0.90;;
74459;SDS011;62902;48.854;9.292;2023-05-19T03:36:20;0.80;;;0.80;;
74459;SDS011;62902;48.854;9.292;2023-05-19T03:38:47;0.80;;;0.80;;
74459;SDS011;62902;48.854;9.292;2023-05-19T03:41:14;0.98;;;0.98;;
74459;SDS011;62902;48.854;9.292;2023-05-19T03:43:41;0.90;;;0.90;;
74459;SDS011;62902;48.854;9.292;2023-05-19T03:46:08;0.90;;;0.90;;
74459;SDS011;62902;48.854;9.292;2023-05-19T03:48:53;0.90;;;0.90;;
74459;SDS011;62902;48.854;9.292;2023-05-19T03:51:37;0.98;;;0.98;;
74459;SDS011;62902;48.854;9.292;2023-05-19T03:54:16;1.00;;;1.00;;
74459;SDS011;62902;48.854;9.292;2023-05-19T03:56:43;0.95;;;0.95;;
74459;SDS011;62902;48.854;9.292;2023-05-19T03:59:09;0.80;;;0.80;;
74459;SDS011;62902;48.854;9.292;2023-05-19T04:01:37;0.98;;;0.98;;
74459;SDS011;62902;48.854;9.292;2023-05-19T04:04:03;1.00;;;1.00;;
74459;SDS011;62902;48.854;9.292;2023-05-19T04:06:30;0.90;;;0.90;;
74459;SDS011;62902;48.854;9.292;2023-05-19T04:08:57;0.90;;;0.90;;
74459;SDS011;62902;48.854;9.292;2023-05-19T04:11:24;1.00;;;1.00;;
74459;SDS011;62902;48.854;9.292;2023-05-19T04:13:50;1.00;;;1.00;;
74459;SDS011;62902;48.854;9.292;2023-05-19T04:16:17;1.00;;;1.00;;
74459;SDS011;62902;48.854;9.292;2023-05-19T04:18:43;0.82;;;0.82;;
74459;SDS011;62902;48.854;9.292;2023-05-19T04:21:11;0.82;;;0.82;;
74459;SDS011;62902;48.854;9.292;2023-05-19T04:23:38;0.85;;;0.85;;
74459;SDS011;62902;48.854;9.292;2023-05-19T04:26:05;0.90;;;0.90;;
74459;SDS011;62902;48.854;9.292;2023-05-19T04:28:32;0.90;;;0.90;;
74459;SDS011;62902;48.854;9.292;2023-05-19T04:31:01;0.90;;;0.90;;
74459;SDS011;62902;48.854;9.292;2023-05-19T04:33:28;0.90;;;0.90;;
74459;SDS011;62902;48.854;9.292;2023-05-19T04:35:55;0.88;;;0.88;;
74459;SDS011;62902;48.854;9.292;2023-05-19T04:38:23;0.90;;;0.90;;
74459;SDS011;62902;48.854;9.292;2023-05-19T04:40:50;0.90;;;0.90;;
74459;SDS011;62902;48.854;9.292;2023-05-19T04:43:17;0.85;;;0.85;;
74459;SDS011;62902;48.854;9.292;2023-05-19T04:45:44;0.88;;;0.88;;
74459;SDS011;62902;48.854;9.292;2023-05-19T04:48:11;0.90;;;0.90;;
74459;SDS011;62902;48.854;9.292;2023-05-19T04:50:39;0.90;;;0.90;;
74459;SDS011;62902;48.854;9.292;2023-05-19T04:53:08;0.80;;;0.80;;
74459;SDS011;62902;48.854;9.292;2023-05-19T04:55:34;0.90;;;0.90;;
74459;SDS011;62902;48.854;9.292;2023-05-19T04:58:03;0.82;;;0.82;;
74459;SDS011;62902;48.854;9.292;2023-05-19T05:00:31;0.80;;;0.80;;
74459;SDS011;62902;48.854;9.292;2023-05-19T05:03:01;0.80;;;0.80;;
74459;SDS011;62902;48.854;9.292;2023-05-19T05:05:33;0.80;;;0.80;;
74459;SDS011;62902;48.854;9.292;2023-05-19T05:08:00;0.88;;;0.88;;
74459;SDS011;62902;48.854;9.292;2023-05-19T05:10:30;1.00;;;1.00;;
74459;SDS011;62902;48.854;9.292;2023-05-19T05:12:57;0.90;;;0.90;;
74459;SDS011;62902;48.854;9.292;2023-05-19T05:15:24;0.80;;;0.80;;
74459;SDS011;62902;48.854;9.292;2023-05-19T05:17:56;0.75;;;0.75;;
74459;SDS011;62902;48.854;9.292;2023-05-19T05:20:23;0.80;;;0.80;;
74459;SDS011;62902;48.854;9.292;2023-05-19T05:22:50;0.80;;;0.80;;
74459;SDS011;62902;48.854;9.292;2023-05-19T05:25:17;0.90;;;0.90;;
74459;SDS011;62902;48.854;9.292;2023-05-19T05:27:45;1.02;;;1.02;;
74459;SDS011;62902;48.854;9.292;2023-05-19T05:30:12;0.90;;;0.90;;
74459;SDS011;62902;48.854;9.292;2023-05-19T05:32:40;1.00;;;1.00;;
74459;SDS011;62902;48.854;9.292;2023-05-19T05:35:14;0.90;;;0.90;;
74459;SDS011;62902;48.854;9.292;2023-05-19T05:37:41;0.90;;;0.90;;
74459;SDS011;62902;48.854;9.292;2023-05-19T05:40:08;0.80;;;0.80;;
74459;SDS011;62902;48.854;9.292;2023-05-19T05:42:34;0.95;;;0.95;;
74459;SDS011;62902;48.854;9.292;2023-05-19T05:45:01;0.95;;;0.95;;
74459;SDS011;62902;48.854;9.292;2023-05-19T05:47:28;0.90;;;0.90;;
74459;SDS011;62902;48.854;9.292;2023-05-19T05:49:55;0.90;;;0.90;;
74459;SDS011;62902;48.854;9.292;2023-05-19T05:52:22;0.90;;;0.90;;
74459;SDS011;62902;48.854;9.292;2023-05-19T05:54:53;1.00;;;1.00;;
74459;SDS011;62902;48.854;9.292;2023-05-19T05:57:21;0.90;;;0.90;;
74459;SDS011;62902;48.854;9.292;2023-05-19T05:59:48;0.90;;;0.90;;
74459;SDS011;62902;48.854;9.292;2023-05-19T06:02:16;0.98;;;0.98;;
74459;SDS011;62902;48.854;9.292;2023-05-19T06:04:43;0.90;;;0.90;;
74459;SDS011;62902;48.854;9.292;2023-05-19T06:07:09;0.85;;;0.85;;
74459;SDS011;62902;48.854;9.292;2023-05-19T06:09:37;0.82;;;0.82;;
74459;SDS011;62902;48.854;9.292;2023-05-19T06:12:05;1.15;;;1.08;;
74459;SDS011;62902;48.854;9.292;2023-05-19T06:14:37;0.88;;;0.88;;
74459;SDS011;62902;48.854;9.292;2023-05-19T06:19:44;0.90;;;0.90;;
74459;SDS011;62902;48.854;9.292;2023-05-19T06:22:11;0.93;;;0.93;;
74459;SDS011;62902;48.854;9.292;2023-05-19T06:24:37;1.63;;;1.50;;
74459;SDS011;62902;48.854;9.292;2023-05-19T06:27:07;0.80;;;0.80;;
74459;SDS011;62902;48.854;9.292;2023-05-19T06:29:33;0.90;;;0.90;;
74459;SDS011;62902;48.854;9.292;2023-05-19T06:32:02;1.00;;;1.00;;
74459;SDS011;62902;48.854;9.292;2023-05-19T06:34:29;5.43;;;3.38;;
74459;SDS011;62902;48.854;9.292;2023-05-19T06:36:56;6.30;;;3.55;;
74459;SDS011;62902;48.854;9.292;2023-05-19T06:39:23;7.75;;;4.25;;
74459;SDS011;62902;48.854;9.292;2023-05-19T06:41:50;6.82;;;3.88;;
74459;SDS011;62902;48.854;9.292;2023-05-19T06:44:39;6.70;;;3.72;;
74459;SDS011;62902;48.854;9.292;2023-05-19T06:47:09;57.45;;;30.88;;
74459;SDS011;62902;48.854;9.292;2023-05-19T06:49:36;9.23;;;5.03;;
74459;SDS011;62902;48.854;9.292;2023-05-19T06:52:03;19.45;;;10.68;;
74459;SDS011;62902;48.854;9.292;2023-05-19T06:54:30;43.25;;;23.48;;
74459;SDS011;62902;48.854;9.292;2023-05-19T06:56:56;55.03;;;29.85;;
74459;SDS011;62902;48.854;9.292;2023-05-19T06:59:23;82.60;;;43.65;;
74459;SDS011;62902;48.854;9.292;2023-05-19T07:01:50;31.10;;;17.20;;
74459;SDS011;62902;48.854;9.292;2023-05-19T07:04:16;15.02;;;8.68;;
74459;SDS011;62902;48.854;9.292;2023-05-19T07:06:43;52.65;;;28.50;;
74459;SDS011;62902;48.854;9.292;2023-05-19T07:09:10;21.17;;;11.88;;
74459;SDS011;62902;48.854;9.292;2023-05-19T07:11:38;27.77;;;15.52;;
74459;SDS011;62902;48.854;9.292;2023-05-19T07:14:05;25.20;;;14.25;;
74459;SDS011;62902;48.854;9.292;2023-05-19T07:16:31;10.23;;;6.13;;
74459;SDS011;62902;48.854;9.292;2023-05-19T07:18:58;80.95;;;44.00;;
74459;SDS011;62902;48.854;9.292;2023-05-19T07:21:25;84.15;;;44.13;;
74459;SDS011;62902;48.854;9.292;2023-05-19T07:23:51;92.13;;;39.22;;
74459;SDS011;62902;48.854;9.292;2023-05-19T07:26:18;98.93;;;37.45;;
74459;SDS011;62902;48.854;9.292;2023-05-19T07:28:44;111.88;;;39.88;;
74459;SDS011;62902;48.854;9.292;2023-05-19T07:31:11;109.45;;;39.15;;
74459;SDS011;62902;48.854;9.292;2023-05-19T07:33:38;97.03;;;37.15;;
74459;SDS011;62902;48.854;9.292;2023-05-19T07:36:04;102.03;;;37.50;;
74459;SDS011;62902;48.854;9.292;2023-05-19T07:38:31;99.45;;;36.60;;
74459;SDS011;62902;48.854;9.292;2023-05-19T07:41:00;102.50;;;38.05;;
74459;SDS011;62902;48.854;9.292;2023-05-19T07:43:27;99.68;;;37.28;;
74459;SDS011;62902;48.854;9.292;2023-05-19T07:45:54;99.07;;;37.72;;
74459;SDS011;62902;48.854;9.292;2023-05-19T07:48:22;101.10;;;37.60;;
74459;SDS011;62902;48.854;9.292;2023-05-19T07:50:51;100.85;;;37.65;;
74459;SDS011;62902;48.854;9.292;2023-05-19T07:53:18;83.50;;;34.30;;
74459;SDS011;62902;48.854;9.292;2023-05-19T07:55:45;98.53;;;37.03;;
74459;SDS011;62902;48.854;9.292;2023-05-19T07:58:11;100.82;;;37.63;;
74459;SDS011;62902;48.854;9.292;2023-05-19T08:00:38;95.53;;;36.55;;
74459;SDS011;62902;48.854;9.292;2023-05-19T08:03:04;101.57;;;38.15;;
74459;SDS011;62902;48.854;9.292;2023-05-19T08:05:33;108.75;;;39.22;;
74459;SDS011;62902;48.854;9.292;2023-05-19T08:08:00;93.68;;;37.00;;
74459;SDS011;62902;48.854;9.292;2023-05-19T08:12:54;100.72;;;37.75;;
74459;SDS011;62902;48.854;9.292;2023-05-19T08:15:21;102.60;;;38.70;;
74459;SDS011;62902;48.854;9.292;2023-05-19T08:17:47;102.05;;;37.72;;
74459;SDS011;62902;48.854;9.292;2023-05-19T08:20:14;95.32;;;35.28;;
74459;SDS011;62902;48.854;9.292;2023-05-19T08:22:41;97.28;;;35.88;;
74459;SDS011;62902;48.854;9.292;2023-05-19T08:25:08;97.00;;;35.30;;
74459;SDS011;62902;48.854;9.292;2023-05-19T08:27:35;100.50;;;35.90;;
74459;SDS011;62902;48.854;9.292;2023-05-19T08:30:02;79.57;;;31.85;;
74459;SDS011;62902;48.854;9.292;2023-05-19T08:32:28;90.05;;;33.95;;
74459;SDS011;62902;48.854;9.292;2023-05-19T08:34:55;89.68;;;33.75;;
74459;SDS011;62902;48.854;9.292;2023-05-19T08:37:21;89.70;;;33.85;;
74459;SDS011;62902;48.854;9.292;2023-05-19T08:39:48;85.18;;;33.03;;
74459;SDS011;62902;48.854;9.292;2023-05-19T08:42:15;89.70;;;33.90;;
74459;SDS011;62902;48.854;9.292;2023-05-19T08:44:41;88.63;;;34.05;;
74459;SDS011;62902;48.854;9.292;2023-05-19T08:47:09;89.60;;;34.15;;
74459;SDS011;62902;48.854;9.292;2023-05-19T08:49:45;81.68;;;32.78;;
74459;SDS011;62902;48.854;9.292;2023-05-19T08:52:33;100.50;;;35.97;;
74459;SDS011;62902;48.854;9.292;2023-05-19T08:55:08;87.00;;;33.72;;
74459;SDS011;62902;48.854;9.292;2023-05-19T08:57:36;84.30;;;33.15;;
74459;SDS011;62902;48.854;9.292;2023-05-19T09:00:04;85.68;;;33.70;;
74459;SDS011;62902;48.854;9.292;2023-05-19T09:02:37;88.65;;;34.65;;
74459;SDS011;62902;48.854;9.292;2023-05-19T09:05:23;87.97;;;34.42;;
74459;SDS011;62902;48.854;9.292;2023-05-19T09:07:50;87.07;;;34.08;;
74459;SDS011;62902;48.854;9.292;2023-05-19T09:10:17;84.50;;;33.08;;
74459;SDS011;62902;48.854;9.292;2023-05-19T09:12:44;86.15;;;33.78;;
74459;SDS011;62902;48.854;9.292;2023-05-19T09:15:12;89.60;;;34.80;;
74459;SDS011;62902;48.854;9.292;2023-05-19T09:17:43;90.07;;;35.03;;
74459;SDS011;62902;48.854;9.292;2023-05-19T09:20:11;87.78;;;34.25;;
74459;SDS011;62902;48.854;9.292;2023-05-19T09:22:43;91.97;;;35.60;;
74459;SDS011;62902;48.854;9.292;2023-05-19T09:25:18;91.40;;;35.35;;
74459;SDS011;62902;48.854;9.292;2023-05-19T09:27:46;92.43;;;35.85;;
74459;SDS011;62902;48.854;9.292;2023-05-19T09:30:17;89.72;;;34.85;;
74459;SDS011;62902;48.854;9.292;2023-05-19T09:32:44;93.72;;;36.90;;
74459;SDS011;62902;48.854;9.292;2023-05-19T09:35:12;67.03;;;32.63;;
74459;SDS011;62902;48.854;9.292;2023-05-19T09:37:39;86.55;;;38.75;;
74459;SDS011;62902;48.854;9.292;2023-05-19T09:40:07;93.53;;;36.30;;
74459;SDS011;62902;48.854;9.292;2023-05-19T09:42:37;93.43;;;36.20;;
74459;SDS011;62902;48.854;9.292;2023-05-19T09:45:04;92.60;;;35.83;;
74459;SDS011;62902;48.854;9.292;2023-05-19T09:47:32;91.97;;;35.53;;
74459;SDS011;62902;48.854;9.292;2023-05-19T09:50:08;86.57;;;33.83;;
74459;SDS011;62902;48.854;9.292;2023-05-19T09:52:41;90.32;;;35.25;;
74459;SDS011;62902;48.854;9.292;2023-05-19T09:55:09;88.30;;;34.63;;
74459;SDS011;62902;48.854;9.292;2023-05-19T09:57:38;93.38;;;36.60;;
74459;SDS011;62902;48.854;9.292;2023-05-19T10:02:45;74.63;;;32.28;;
74459;SDS011;62902;48.854;9.292;2023-05-19T10:07:42;65.38;;;31.42;;
74459;SDS011;62902;48.854;9.292;2023-05-19T10:10:14;67.22;;;31.85;;
74459;SDS011;62902;48.854;9.292;2023-05-19T10:12:41;61.65;;;31.00;;
74459;SDS011;62902;48.854;9.292;2023-05-19T10:15:08;69.63;;;32.60;;
74459;SDS011;62902;48.854;9.292;2023-05-19T10:17:38;76.82;;;35.42;;
74459;SDS011;62902;48.854;9.292;2023-05-19T10:22:38;63.42;;;31.40;;
74459;SDS011;62902;48.854;9.292;2023-05-19T10:27:33;69.10;;;32.50;;
74459;SDS011;62902;48.854;9.292;2023-05-19T10:30:06;87.03;;;36.40;;
74459;SDS011;62902;48.854;9.292;2023-05-19T10:32:38;61.78;;;29.88;;
74459;SDS011;62902;48.854;9.292;2023-05-19T10:41:12;54.72;;;27.75;;
74459;SDS011;62902;48.854;9.292;2023-05-19T10:46:55;17.10;;;8.70;;
74459;SDS011;62902;48.854;9.292;2023-05-19T10:49:22;1.13;;;1.10;;
74459;SDS011;62902;48.854;9.292;2023-05-19T10:51:50;1.40;;;1.30;;
74459;SDS011;62902;48.854;9.292;2023-05-19T10:54:17;1.23;;;1.13;;
74459;SDS011;62902;48.854;9.292;2023-05-19T10:57:04;1.10;;;1.10;;
74459;SDS011;62902;48.854;9.292;2023-05-19T10:59:33;1.30;;;1.20;;
74459;SDS011;62902;48.854;9.292;2023-05-19T11:02:07;1.20;;;1.10;;
74459;SDS011;62902;48.854;9.292;2023-05-19T11:04:47;1.20;;;1.10;;
74459;SDS011;62902;48.854;9.292;2023-05-19T11:07:19;1.20;;;1.10;;
74459;SDS011;62902;48.854;9.292;2023-05-19T11:09:50;1.02;;;1.02;;
74459;SDS011;62902;48.854;9.292;2023-05-19T11:12:20;1.00;;;1.00;;
74459;SDS011;62902;48.854;9.292;2023-05-19T11:14:53;1.08;;;1.08;;
74459;SDS011;62902;48.854;9.292;2023-05-19T11:17:20;1.10;;;1.10;;
74459;SDS011;62902;48.854;9.292;2023-05-19T11:19:52;1.20;;;1.10;;
74459;SDS011;62902;48.854;9.292;2023-05-19T11:22:21;1.30;;;1.20;;
74459;SDS011;62902;48.854;9.292;2023-05-19T11:24:55;1.30;;;1.20;;
74459;SDS011;62902;48.854;9.292;2023-05-19T11:27:26;1.38;;;1.27;;
74459;SDS011;62902;48.854;9.292;2023-05-19T11:29:57;1.30;;;1.20;;
74459;SDS011;62902;48.854;9.292;2023-05-19T11:32:26;1.15;;;1.10;;
74459;SDS011;62902;48.854;9.292;2023-05-19T11:34:56;1.40;;;1.30;;
74459;SDS011;62902;48.854;9.292;2023-05-19T11:37:23;1.23;;;1.13;;
74459;SDS011;62902;48.854;9.292;2023-05-19T11:39:50;1.17;;;1.10;;
74459;SDS011;62902;48.854;9.292;2023-05-19T11:42:17;1.35;;;1.25;;
74459;SDS011;62902;48.854;9.292;2023-05-19T11:44:44;1.30;;;1.20;;
74459;SDS011;62902;48.854;9.292;2023-05-19T11:47:11;1.10;;;1.10;;
74459;SDS011;62902;48.854;9.292;2023-05-19T11:49:43;1.20;;;1.10;;
74459;SDS011;62902;48.854;9.292;2023-05-19T11:52:10;1.30;;;1.20;;
74459;SDS011;62902;48.854;9.292;2023-05-19T11:54:37;1.20;;;1.10;;
74459;SDS011;62902;48.854;9.292;2023-05-19T11:57:04;1.50;;;1.40;;
74459;SDS011;62902;48.854;9.292;2023-05-19T11:59:31;1.30;;;1.20;;
74459;SDS011;62902;48.854;9.292;2023-05-19T12:02:22;1.30;;;1.20;;
74459;SDS011;62902;48.854;9.292;2023-05-19T12:04:53;1.30;;;1.20;;
74459;SDS011;62902;48.854;9.292;2023-05-19T12:07:23;1.27;;;1.17;;
74459;SDS011;62902;48.854;9.292;2023-05-19T12:09:50;1.30;;;1.20;;
74459;SDS011;62902;48.854;9.292;2023-05-19T12:12:20;1.33;;;1.23;;
74459;SDS011;62902;48.854;9.292;2023-05-19T12:14:51;1.42;;;1.33;;
74459;SDS011;62902;48.854;9.292;2023-05-19T12:17:19;1.40;;;1.30;;
74459;SDS011;62902;48.854;9.292;2023-05-19T12:19:46;1.40;;;1.30;;
74459;SDS011;62902;48.854;9.292;2023-05-19T12:22:14;1.40;;;1.30;;
74459;SDS011;62902;48.854;9.292;2023-05-19T12:24:42;1.23;;;1.13;;
74459;SDS011;62902;48.854;9.292;2023-05-19T12:29:39;1.50;;;1.40;;
74459;SDS011;62902;48.854;9.292;2023-05-19T12:32:06;1.30;;;1.20;;
74459;SDS011;62902;48.854;9.292;2023-05-19T12:34:36;1.00;;;1.00;;
74459;SDS011;62902;48.854;9.292;2023-05-19T12:37:04;1.30;;;1.20;;
74459;SDS011;62902;48.854;9.292;2023-05-19T12:39:31;1.30;;;1.20;;
74459;SDS011;62902;48.854;9.292;2023-05-19T12:42:07;1.25;;;1.15;;
74459;SDS011;62902;48.854;9.292;2023-05-19T12:44:37;1.13;;;1.10;;
74459;SDS011;62902;48.854;9.292;2023-05-19T12:47:07;1.30;;;1.20;;
74459;SDS011;62902;48.854;9.292;2023-05-19T12:49:34;1.33;;;1.23;;
74459;SDS011;62902;48.854;9.292;2023-05-19T12:52:01;1.40;;;1.30;;
74459;SDS011;62902;48.854;9.292;2023-05-19T12:54:38;1.48;;;1.38;;
74459;SDS011;62902;48.854;9.292;2023-05-19T12:57:06;1.27;;;1.17;;
74459;SDS011;62902;48.854;9.292;2023-05-19T12:59:33;1.30;;;1.20;;
74459;SDS011;62902;48.854;9.292;2023-05-19T13:02:04;1.35;;;1.25;;
74459;SDS011;62902;48.854;9.292;2023-05-19T13:04:32;1.45;;;1.35;;
74459;SDS011;62902;48.854;9.292;2023-05-19T13:06:58;1.40;;;1.30;;
74459;SDS011;62902;48.854;9.292;2023-05-19T13:09:25;1.00;;;1.00;;
74459;SDS011;62902;48.854;9.292;2023-05-19T13:11:53;1.30;;;1.20;;
74459;SDS011;62902;48.854;9.292;2023-05-19T13:14:20;1.23;;;1.15;;
74459;SDS011;62902;48.854;9.292;2023-05-19T13:16:46;1.30;;;1.20;;
74459;SDS011;62902;48.854;9.292;2023-05-19T13:19:16;1.35;;;1.25;;
74459;SDS011;62902;48.854;9.292;2023-05-19T13:21:51;1.30;;;1.20;;
74459;SDS011;62902;48.854;9.292;2023-05-19T13:24:18;1.33;;;1.23;;
74459;SDS011;62902;48.854;9.292;2023-05-19T13:26:44;1.30;;;1.20;;
74459;SDS011;62902;48.854;9.292;2023-05-19T13:29:11;1.30;;;1.20;;
74459;SDS011;62902;48.854;9.292;2023-05-19T13:31:38;1.30;;;1.20;;
74459;SDS011;62902;48.854;9.292;2023-05-19T13:34:04;1.40;;;1.30;;
74459;SDS011;62902;48.854;9.292;2023-05-19T13:36:31;1.40;;;1.30;;
74459;SDS011;62902;48.854;9.292;2023-05-19T13:39:01;1.30;;;1.20;;
74459;SDS011;62902;48.854;9.292;2023-05-19T13:41:28;1.10;;;1.10;;
74459;SDS011;62902;48.854;9.292;2023-05-19T13:43:56;1.15;;;1.10;;
74459;SDS011;62902;48.854;9.292;2023-05-19T13:46:24;1.40;;;1.30;;
74459;SDS011;62902;48.854;9.292;2023-05-19T13:49:09;1.13;;;1.10;;
74459;SDS011;62902;48.854;9.292;2023-05-19T13:51:35;1.10;;;1.10;;
74459;SDS011;62902;48.854;9.292;2023-05-19T13:54:02;1.10;;;1.10;;
74459;SDS011;62902;48.854;9.292;2023-05-19T13:56:30;1.27;;;1.17;;
74459;SDS011;62902;48.854;9.292;2023-05-19T13:58:57;1.30;;;1.20;;
74459;SDS011;62902;48.854;9.292;2023-05-19T14:01:23;1.17;;;1.10;;
74459;SDS011;62902;48.854;9.292;2023-05-19T14:03:57;1.10;;;1.10;;
74459;SDS011;62902;48.854;9.292;2023-05-19T14:06:23;1.30;;;1.20;;
74459;SDS011;62902;48.854;9.292;2023-05-19T14:08:50;1.10;;;1.10;;
74459;SDS011;62902;48.854;9.292;2023-05-19T14:11:17;1.02;;;1.02;;
74459;SDS011;62902;48.854;9.292;2023-05-19T14:13:50;1.20;;;1.10;;
74459;SDS011;62902;48.854;9.292;2023-05-19T14:18:45;1.00;;;1.00;;
74459;SDS011;62902;48.854;9.292;2023-05-19T14:21:12;1.30;;;1.20;;
74459;SDS011;62902;48.854;9.292;2023-05-19T14:23:39;1.30;;;1.20;;
74459;SDS011;62902;48.854;9.292;2023-05-19T14:26:05;1.20;;;1.10;;
74459;SDS011;62902;48.854;9.292;2023-05-19T14:28:32;1.35;;;1.25;;
74459;SDS011;62902;48.854;9.292;2023-05-19T14:30:59;1.10;;;1.10;;
74459;SDS011;62902;48.854;9.292;2023-05-19T14:33:25;1.38;;;1.27;;
74459;SDS011;62902;48.854;9.292;2023-05-19T14:35:52;1.33;;;1.23;;
74459;SDS011;62902;48.854;9.292;2023-05-19T14:38:19;1.20;;;1.10;;
74459;SDS011;62902;48.854;9.292;2023-05-19T14:40:45;1.50;;;1.40;;
74459;SDS011;62902;48.854;9.292;2023-05-19T14:43:13;1.40;;;1.30;;
74459;SDS011;62902;48.854;9.292;2023-05-19T14:45:40;1.02;;;1.02;;
74459;SDS011;62902;48.854;9.292;2023-05-19T14:48:09;1.27;;;1.17;;
74459;SDS011;62902;48.854;9.292;2023-05-19T14:50:38;1.10;;;1.10;;
74459;SDS011;62902;48.854;9.292;2023-05-19T14:53:05;1.10;;;1.10;;
74459;SDS011;62902;48.854;9.292;2023-05-19T14:55:31;1.20;;;1.13;;
74459;SDS011;62902;48.854;9.292;2023-05-19T14:57:58;1.30;;;1.20;;
74459;SDS011;62902;48.854;9.292;2023-05-19T15:00:24;1.20;;;1.10;;
74459;SDS011;62902;48.854;9.292;2023-05-19T15:02:52;1.50;;;1.40;;
74459;SDS011;62902;48.854;9.292;2023-05-19T15:05:19;1.30;;;1.20;;
74459;SDS011;62902;48.854;9.292;2023-05-19T15:07:45;1.17;;;1.10;;
74459;SDS011;62902;48.854;9.292;2023-05-19T15:10:12;1.40;;;1.30;;
74459;SDS011;62902;48.854;9.292;2023-05-19T15:12:38;1.30;;;1.20;;
74459;SDS011;62902;48.854;9.292;2023-05-19T15:15:05;1.10;;;1.10;;
74459;SDS011;62902;48.854;9.292;2023-05-19T15:17:32;1.10;;;1.10;;
74459;SDS011;62902;48.854;9.292;2023-05-19T15:19:59;1.10;;;1.10;;
74459;SDS011;62902;48.854;9.292;2023-05-19T15:22:26;1.33;;;1.23;;
74459;SDS011;62902;48.854;9.292;2023-05-19T15:24:53;1.00;;;1.00;;
74459;SDS011;62902;48.854;9.292;2023-05-19T15:27:21;1.35;;;1.25;;
74459;SDS011;62902;48.854;9.292;2023-05-19T15:29:48;1.35;;;1.25;;
74459;SDS011;62902;48.854;9.292;2023-05-19T15:32:14;1.30;;;1.20;;
74459;SDS011;62902;48.854;9.292;2023-05-19T15:34:41;1.25;;;1.15;;